Time;durP1;ratioP1;P1;durP2;ratioP2;P2;SDS_P1;SDS_P2;PMS_P1;PMS_P2;Temp;Humidity;BMP_temperature;BMP_pressure;BME280_temperature;BME280_humidity;BME280_pressure;Samples;Min_cycle;Max_cycle;Signal;HPM_P1;HPM_P2
2021/01/03 00:02:05;;;;;;;3.08;1.35;;;6.50;62.70;;;;;;6274714;28;20139;-82
2021/01/03 00:05:06;;;;;;;3.30;2.35;;;6.50;62.60;;;;;;6262289;28;20471;-83
2021/01/03 00:08:07;;;;;;;3.28;2.10;;;6.50;62.50;;;;;;6288895;28;20047;-81
2021/01/03 00:11:09;;;;;;;3.65;1.38;;;6.50;62.30;;;;;;6254191;28;20053;-82
2021/01/03 00:14:10;;;;;;;3.88;1.60;;;6.60;62.10;;;;;;6273411;28;20037;-83
2021/01/03 00:17:11;;;;;;;3.33;1.60;;;6.50;62.00;;;;;;6262656;28;20091;-81
2021/01/03 00:20:27;;;;;;;2.42;1.70;;;6.50;62.20;;;;;;6280458;28;20388;-82
2021/01/03 00:23:28;;;;;;;6.40;2.50;;;6.50;62.40;;;;;;6280959;28;20037;-82
2021/01/03 00:26:29;;;;;;;3.67;1.98;;;6.40;62.60;;;;;;6267062;28;20329;-81
2021/01/03 00:29:30;;;;;;;6.80;3.20;;;6.40;63.00;;;;;;6252081;28;20057;-81
2021/01/03 00:32:32;;;;;;;3.47;1.80;;;6.30;63.10;;;;;;6261267;28;20116;-82
2021/01/03 00:35:38;;;;;;;6.28;3.22;;;6.30;63.10;;;;;;6244725;28;20163;-82
2021/01/03 00:38:39;;;;;;;2.53;1.83;;;6.30;63.20;;;;;;6229942;28;20443;-82
2021/01/03 00:41:40;;;;;;;7.90;3.17;;;6.30;63.30;;;;;;6258045;28;20044;-81
2021/01/03 00:44:41;;;;;;;2.38;1.73;;;6.30;63.10;;;;;;6248241;28;20052;-82
2021/01/03 00:47:42;;;;;;;4.70;2.55;;;6.30;63.10;;;;;;6208417;28;20029;-81
2021/01/03 00:50:43;;;;;;;5.85;2.58;;;6.30;63.20;;;;;;6251111;28;20056;-81
2021/01/03 00:53:45;;;;;;;2.40;1.65;;;6.30;63.30;;;;;;6266193;28;20369;-80
2021/01/03 00:56:46;;;;;;;5.40;2.78;;;6.30;63.30;;;;;;6231729;28;20037;-81
2021/01/03 00:59:47;;;;;;;4.50;2.90;;;6.30;63.00;;;;;;6214110;28;20036;-80
2021/01/03 01:02:48;;;;;;;4.03;2.47;;;6.30;63.20;;;;;;6242134;28;20036;-81
2021/01/03 01:05:50;;;;;;;5.78;2.67;;;6.20;63.40;;;;;;6263567;28;20092;-81
2021/01/03 01:08:51;;;;;;;6.47;3.22;;;6.20;63.50;;;;;;6263903;28;20069;-81
2021/01/03 01:11:53;;;;;;;4.05;2.45;;;6.30;63.50;;;;;;6261913;28;20076;-81
2021/01/03 01:14:55;;;;;;;7.22;3.53;;;6.20;63.30;;;;;;6271256;28;20103;-81
2021/01/03 01:17:57;;;;;;;2.97;1.77;;;6.30;63.30;;;;;;6246649;28;20037;-80
2021/01/03 01:20:58;;;;;;;6.35;3.05;;;6.20;63.40;;;;;;6246326;28;20045;-81
2021/01/03 01:23:59;;;;;;;6.90;3.35;;;6.20;63.50;;;;;;6245152;28;20049;-81
2021/01/03 01:27:00;;;;;;;6.82;3.00;;;6.10;63.50;;;;;;6246224;28;20072;-81
2021/01/03 01:30:02;;;;;;;3.03;2.13;;;6.20;63.60;;;;;;6286047;28;20048;-81
2021/01/03 01:33:04;;;;;;;4.90;2.83;;;6.10;63.60;;;;;;6311450;28;20036;-81
2021/01/03 01:36:07;;;;;;;4.13;2.30;;;6.10;63.60;;;;;;6307362;28;20067;-80
2021/01/03 01:39:07;;;;;;;5.93;2.65;;;6.10;63.80;;;;;;6324153;28;20044;-81
2021/01/03 01:42:09;;;;;;;3.83;2.35;;;6.10;63.80;;;;;;6314680;28;20033;-81
2021/01/03 01:45:13;;;;;;;5.18;2.45;;;6.10;63.80;;;;;;6309901;28;20055;-81
2021/01/03 01:48:27;;;;;;;5.57;2.85;;;6.10;63.90;;;;;;6316215;28;20021;-81
2021/01/03 01:51:38;;;;;;;4.15;1.58;;;6.10;63.90;;;;;;6315951;28;20055;-80
2021/01/03 01:54:42;;;;;;;5.40;2.33;;;6.10;63.60;;;;;;6303934;28;20041;-81
2021/01/03 01:58:08;;;;;;;4.35;2.97;;;6.10;63.50;;;;;;6298450;28;20033;-80
2021/01/03 02:01:15;;;;;;;5.88;2.85;;;6.10;63.60;;;;;;6297427;28;20063;-81
2021/01/03 02:04:31;;;;;;;6.32;3.17;;;6.10;63.50;;;;;;6303877;28;20079;-82
2021/01/03 02:08:09;;;;;;;5.22;2.28;;;6.10;63.30;;;;;;6298198;28;20455;-79
2021/01/03 02:11:15;;;;;;;5.95;3.20;;;6.10;63.40;;;;;;6302966;28;20036;-79
2021/01/03 02:14:16;;;;;;;6.97;2.88;;;6.10;63.30;;;;;;6303331;28;20028;-80
2021/01/03 02:17:17;;;;;;;5.07;2.15;;;6.10;63.40;;;;;;6298470;28;20047;-80
2021/01/03 02:20:18;;;;;;;4.13;2.72;;;6.10;63.40;;;;;;6281404;28;20037;-80
2021/01/03 02:23:44;;;;;;;3.53;2.47;;;6.10;63.30;;;;;;6273083;28;20124;-81
2021/01/03 02:26:51;;;;;;;5.43;3.05;;;6.10;63.10;;;;;;6214868;28;20432;-81
2021/01/03 02:29:53;;;;;;;3.38;2.00;;;6.10;62.90;;;;;;6211088;28;20131;-81
2021/01/03 02:33:34;;;;;;;6.13;1.45;;;6.10;62.90;;;;;;6223612;28;20046;-81
2021/01/03 02:36:43;;;;;;;6.40;2.70;;;6.00;62.90;;;;;;6208243;28;20042;-80
2021/01/03 02:39:58;;;;;;;7.50;2.63;;;6.00;63.00;;;;;;6211566;28;20339;-82
2021/01/03 02:42:59;;;;;;;6.30;3.70;;;6.00;63.10;;;;;;6225872;28;20113;-81
2021/01/03 02:46:00;;;;;;;10.13;3.40;;;6.00;63.10;;;;;;6206167;28;20115;-81
2021/01/03 02:49:01;;;;;;;6.43;2.83;;;6.00;63.30;;;;;;6223037;28;20542;-82
2021/01/03 02:52:06;;;;;;;4.85;1.98;;;6.00;63.40;;;;;;6207717;28;20042;-82
2021/01/03 02:55:08;;;;;;;4.85;2.50;;;6.00;63.50;;;;;;6223800;28;20037;-81
2021/01/03 02:58:09;;;;;;;5.00;2.97;;;6.00;63.40;;;;;;6205865;28;20037;-80
2021/01/03 03:01:11;;;;;;;2.70;1.60;;;5.90;63.50;;;;;;6208304;28;20489;-81
2021/01/03 03:04:12;;;;;;;4.10;2.05;;;5.90;63.40;;;;;;6259057;28;20048;-80
2021/01/03 03:07:13;;;;;;;7.55;2.33;;;6.00;63.50;;;;;;6233298;28;20041;-80
2021/01/03 03:10:15;;;;;;;6.03;2.78;;;5.90;63.40;;;;;;6254801;28;20036;-81
2021/01/03 03:13:16;;;;;;;3.92;2.25;;;5.90;63.40;;;;;;6274583;28;20037;-81
2021/01/03 03:16:19;;;;;;;6.45;2.67;;;5.90;63.30;;;;;;6274660;28;20041;-82
2021/01/03 03:19:20;;;;;;;3.38;2.00;;;5.90;63.30;;;;;;6281389;28;20047;-81
2021/01/03 03:22:21;;;;;;;6.72;3.47;;;5.90;63.40;;;;;;6266958;28;20140;-80
2021/01/03 03:25:23;;;;;;;1.02;0.73;;;5.90;63.30;;;;;;6275516;28;20104;-81
2021/01/03 03:28:24;;;;;;;6.25;3.45;;;6.00;63.50;;;;;;6301353;28;20032;-81
2021/01/03 03:31:27;;;;;;;4.45;2.63;;;6.00;63.50;;;;;;6284978;28;20052;-81
2021/01/03 03:34:28;;;;;;;4.32;2.47;;;5.90;63.60;;;;;;6326017;28;20047;-82
2021/01/03 03:37:30;;;;;;;4.13;2.50;;;6.00;63.60;;;;;;6288953;28;20040;-82
2021/01/03 03:40:31;;;;;;;6.65;2.60;;;5.90;63.50;;;;;;6317732;28;20424;-81
2021/01/03 03:43:32;;;;;;;3.85;2.30;;;6.00;63.60;;;;;;6300559;28;20044;-82
2021/01/03 03:46:34;;;;;;;7.28;3.03;;;6.00;63.40;;;;;;6298341;28;20459;-80
2021/01/03 03:49:35;;;;;;;4.72;2.65;;;6.00;63.10;;;;;;6316073;28;20050;-81
2021/01/03 03:52:36;;;;;;;6.65;3.17;;;6.00;63.10;;;;;;6300320;28;20059;-81
2021/01/03 03:55:37;;;;;;;4.35;2.25;;;6.00;62.90;;;;;;6282366;28;20468;-81
2021/01/03 03:58:39;;;;;;;3.30;1.92;;;6.00;62.80;;;;;;6300191;28;20036;-82
2021/01/03 04:01:40;;;;;;;4.70;2.15;;;6.10;62.80;;;;;;6265323;28;20128;-81
2021/01/03 04:04:40;;;;;;;4.90;2.63;;;6.00;62.60;;;;;;6264238;28;20040;-81
2021/01/03 04:07:41;;;;;;;4.18;2.05;;;6.00;62.60;;;;;;6299462;28;20028;-82
2021/01/03 04:10:43;;;;;;;5.65;2.38;;;6.00;62.60;;;;;;6282029;28;20047;-82
2021/01/03 04:13:44;;;;;;;5.30;2.67;;;6.00;62.60;;;;;;6283339;28;20040;-80
2021/01/03 04:16:53;;;;;;;5.38;2.63;;;6.00;62.40;;;;;;6306865;28;20025;-81
2021/01/03 04:19:55;;;;;;;4.88;2.38;;;6.00;62.40;;;;;;6305553;28;20028;-80
2021/01/03 04:22:57;;;;;;;8.82;2.58;;;6.10;62.30;;;;;;6304915;28;20031;-81
2021/01/03 04:25:59;;;;;;;6.63;2.85;;;6.10;62.20;;;;;;6305256;28;20070;-80
2021/01/03 04:29:00;;;;;;;8.52;3.60;;;6.10;62.10;;;;;;6302370;28;20425;-80
2021/01/03 04:32:04;;;;;;;4.30;2.80;;;6.10;62.10;;;;;;6329162;28;20043;-80
2021/01/03 04:35:08;;;;;;;5.32;2.95;;;6.10;62.20;;;;;;6329990;28;20487;-80
2021/01/03 04:38:09;;;;;;;5.93;2.95;;;6.10;62.20;;;;;;6329544;28;20039;-81
2021/01/03 04:41:12;;;;;;;3.17;1.88;;;6.10;62.10;;;;;;6347688;28;20125;-80
2021/01/03 04:44:25;;;;;;;2.20;1.55;;;6.10;61.90;;;;;;6330251;28;20058;-81
2021/01/03 04:47:39;;;;;;;3.92;1.85;;;6.10;61.90;;;;;;6347750;28;20147;-81
2021/01/03 04:51:09;;;;;;;5.60;3.08;;;6.00;62.00;;;;;;6329283;28;20032;-81
2021/01/03 04:54:17;;;;;;;3.50;2.00;;;6.00;62.20;;;;;;6194833;28;20068;-81
2021/01/03 04:57:27;;;;;;;9.50;2.60;;;6.00;62.20;;;;;;6214401;28;20039;-80
2021/01/03 05:00:37;;;;;;;2.80;1.80;;;6.00;62.20;;;;;;6224044;28;20026;-82
2021/01/03 05:03:47;;;;;;;2.47;1.98;;;6.00;62.10;;;;;;6222298;28;20037;-80
2021/01/03 05:06:52;;;;;;;3.85;2.47;;;6.10;62.10;;;;;;6205804;28;20097;-80
2021/01/03 05:10:07;;;;;;;5.80;2.40;;;6.10;62.10;;;;;;6233963;28;20120;-81
2021/01/03 05:13:20;;;;;;;6.20;2.75;;;6.10;61.90;;;;;;6218364;28;20185;-80
2021/01/03 05:16:22;;;;;;;4.30;1.52;;;6.10;61.70;;;;;;6213408;28;20034;-81
2021/01/03 05:19:23;;;;;;;6.75;2.90;;;6.10;61.70;;;;;;6204545;28;20126;-82
2021/01/03 05:22:30;;;;;;;6.75;2.03;;;6.20;61.80;;;;;;6221054;28;20373;-80
2021/01/03 05:25:42;;;;;;;2.78;1.88;;;6.10;61.70;;;;;;6236671;28;20061;-81
2021/01/03 05:28:54;;;;;;;3.35;2.10;;;6.10;61.70;;;;;;6219118;28;20096;-81
2021/01/03 05:32:01;;;;;;;5.00;2.60;;;6.10;61.70;;;;;;6304443;28;20409;-81
2021/01/03 05:35:02;;;;;;;0.45;0.45;;;6.10;61.90;;;;;;6305683;28;20047;-82
2021/01/03 05:38:04;;;;;;;3.67;2.20;;;6.00;62.00;;;;;;6305031;28;20040;-80
2021/01/03 05:41:17;;;;;;;3.90;1.90;;;6.00;62.10;;;;;;6310440;28;20036;-81
2021/01/03 05:44:29;;;;;;;4.35;2.17;;;6.00;62.00;;;;;;6348994;28;20076;-80
2021/01/03 05:47:36;;;;;;;4.20;1.95;;;6.00;61.90;;;;;;6332409;28;20035;-80
2021/01/03 05:50:41;;;;;;;1.25;0.68;;;6.00;61.90;;;;;;6292298;28;20032;-80
2021/01/03 05:53:42;;;;;;;5.32;1.90;;;6.00;61.70;;;;;;6319302;28;20051;-80
2021/01/03 05:56:44;;;;;;;3.58;2.25;;;6.00;61.80;;;;;;6314753;28;20032;-81
2021/01/03 05:59:47;;;;;;;3.03;2.03;;;6.00;61.90;;;;;;6270462;28;20325;-81
2021/01/03 06:02:48;;;;;;;4.25;2.13;;;6.10;61.80;;;;;;6267689;28;20083;-81
2021/01/03 06:06:01;;;;;;;2.58;1.48;;;6.10;61.70;;;;;;6264181;28;20033;-81
2021/01/03 06:09:02;;;;;;;2.58;1.67;;;6.10;61.60;;;;;;6300405;28;20036;-81
2021/01/03 06:12:18;;;;;;;3.30;1.80;;;6.10;61.40;;;;;;6284174;28;20044;-81
2021/01/03 06:15:19;;;;;;;3.08;1.90;;;6.10;61.40;;;;;;6283989;28;20044;-81
2021/01/03 06:18:40;;;;;;;4.18;2.47;;;6.10;61.30;;;;;;6291282;28;20040;-81
2021/01/03 06:21:41;;;;;;;9.00;3.10;;;6.10;61.50;;;;;;6301125;28;20456;-81
2021/01/03 06:24:42;;;;;;;4.40;1.60;;;6.10;61.50;;;;;;6283869;28;20459;-81
2021/01/03 06:27:47;;;;;;;3.88;2.33;;;6.10;61.70;;;;;;6294796;28;20109;-81
2021/01/03 06:31:23;;;;;;;5.00;2.30;;;6.10;61.80;;;;;;6266957;28;20085;-81
2021/01/03 06:34:49;;;;;;;4.95;1.67;;;6.10;61.70;;;;;;6182352;28;20117;-81
2021/01/03 06:38:09;;;;;;;4.15;2.05;;;6.10;61.70;;;;;;6203541;28;20046;-82
2021/01/03 06:41:24;;;;;;;3.63;1.88;;;6.10;61.40;;;;;;6185205;28;20102;-82
2021/01/03 06:44:46;;;;;;;4.57;2.10;;;6.10;61.40;;;;;;6199648;28;20050;-81
2021/01/03 06:48:05;;;;;;;2.13;1.52;;;6.10;61.40;;;;;;6183409;28;20355;-81
2021/01/03 06:51:06;;;;;;;3.30;1.73;;;6.10;61.40;;;;;;6183375;28;20458;-81
2021/01/03 06:54:33;;;;;;;3.42;1.92;;;6.10;61.30;;;;;;6199124;28;20522;-80
2021/01/03 06:58:04;;;;;;;1.30;1.10;;;6.10;61.30;;;;;;6186537;28;20137;-81
2021/01/03 07:01:21;;;;;;;4.90;2.03;;;6.10;61.30;;;;;;6208363;28;20053;-80
2021/01/03 07:04:28;;;;;;;5.70;1.83;;;6.10;61.40;;;;;;6222705;28;20040;-80
2021/01/03 07:07:29;;;;;;;4.85;2.33;;;6.10;61.40;;;;;;6179727;28;20030;-80
2021/01/03 07:10:35;;;;;;;5.75;3.15;;;6.10;61.30;;;;;;6256859;28;20028;-81
2021/01/03 07:13:40;;;;;;;2.87;2.03;;;6.10;61.40;;;;;;6275088;28;20486;-81
2021/01/03 07:16:47;;;;;;;1.70;1.13;;;6.10;61.20;;;;;;6309979;28;20038;-80
2021/01/03 07:19:54;;;;;;;2.60;1.85;;;6.10;61.20;;;;;;6301332;28;20025;-82
2021/01/03 07:23:36;;;;;;;3.80;1.80;;;6.10;61.20;;;;;;6307173;28;20048;-80
2021/01/03 07:26:37;;;;;;;5.88;2.55;;;6.10;61.20;;;;;;6299124;28;20044;-81
2021/01/03 07:30:00;;;;;;;4.53;2.40;;;6.10;61.20;;;;;;6295563;28;20061;-81
2021/01/03 07:33:09;;;;;;;4.03;1.75;;;6.10;61.40;;;;;;6279813;28;20106;-82
2021/01/03 07:36:36;;;;;;;4.47;2.15;;;6.10;61.50;;;;;;6279677;28;20364;-81
2021/01/03 07:39:56;;;;;;;3.35;1.60;;;6.10;61.70;;;;;;6277753;28;20506;-81
2021/01/03 07:43:03;;;;;;;3.53;2.08;;;6.10;61.60;;;;;;6276840;28;20032;-81
2021/01/03 07:46:04;;;;;;;3.55;2.53;;;6.10;61.50;;;;;;6266000;28;20033;-81
2021/01/03 07:49:41;;;;;;;2.88;1.83;;;6.10;61.50;;;;;;6275472;28;20467;-81
2021/01/03 07:52:47;;;;;;;7.07;2.83;;;6.10;61.70;;;;;;6255250;28;20049;-81
2021/01/03 07:55:48;;;;;;;3.85;2.35;;;6.10;61.80;;;;;;6296051;28;20377;-81
2021/01/03 07:58:54;;;;;;;4.35;2.17;;;6.10;61.80;;;;;;6295429;28;20035;-81
2021/01/03 08:01:56;;;;;;;5.00;2.58;;;6.10;61.80;;;;;;6316587;28;20113;-81
2021/01/03 08:05:02;;;;;;;3.70;1.95;;;6.20;61.90;;;;;;6322481;28;20478;-81
2021/01/03 08:08:16;;;;;;;8.30;2.83;;;6.20;61.80;;;;;;6293204;28;20028;-81
2021/01/03 08:11:46;;;;;;;3.55;2.30;;;6.20;61.70;;;;;;6319591;28;20047;-81
2021/01/03 08:14:56;;;;;;;4.53;2.15;;;6.20;61.60;;;;;;6298671;28;20039;-81
2021/01/03 08:18:11;;;;;;;;;;;6.30;61.50;;;;;;6279938;28;20051;-81
2021/01/03 08:21:19;;;;;;;3.58;1.85;;;6.30;61.50;;;;;;6280379;28;20390;-81
2021/01/03 08:24:21;;;;;;;;;;;6.30;61.20;;;;;;6297714;28;20056;-81
2021/01/03 08:27:46;;;;;;;3.40;1.38;;;6.30;61.30;;;;;;6295696;28;20331;-80
2021/01/03 08:30:50;;;;;;;5.53;1.98;;;6.30;61.20;;;;;;6319218;28;20127;-80
2021/01/03 08:33:53;;;;;;;4.07;2.40;;;6.30;61.40;;;;;;6301199;28;20036;-81
2021/01/03 08:36:54;;;;;;;4.85;2.47;;;6.30;61.20;;;;;;6314984;28;20443;-80
2021/01/03 08:39:56;;;;;;;4.47;2.53;;;6.30;61.20;;;;;;6296833;28;20043;-81
2021/01/03 08:43:05;;;;;;;5.05;2.80;;;6.30;61.10;;;;;;6281446;28;20352;-80
2021/01/03 08:46:09;;;;;;;3.63;2.75;;;6.40;61.20;;;;;;6296602;28;20435;-82
2021/01/03 08:49:10;;;;;;;4.78;2.58;;;6.40;61.20;;;;;;6280205;28;20029;-81
2021/01/03 08:52:24;;;;;;;3.33;2.20;;;6.40;61.00;;;;;;6282238;28;20033;-80
2021/01/03 08:55:28;;;;;;;5.63;2.67;;;6.40;61.00;;;;;;6264845;28;20463;-81
2021/01/03 08:58:38;;;;;;;5.05;2.28;;;6.40;60.90;;;;;;6260515;28;20037;-82
2021/01/03 09:01:39;;;;;;;3.67;1.83;;;6.40;60.90;;;;;;6297465;28;20458;-82
2021/01/03 09:04:40;;;;;;;3.85;2.45;;;6.50;60.70;;;;;;6279989;28;20093;-82
2021/01/03 09:07:42;;;;;;;4.80;2.13;;;6.50;60.40;;;;;;6280194;28;20510;-81
2021/01/03 09:10:44;;;;;;;6.15;3.15;;;6.60;60.40;;;;;;6296437;28;20107;-81
2021/01/03 09:13:52;;;;;;;5.05;2.10;;;6.60;60.30;;;;;;6279890;28;20048;-82
2021/01/03 09:17:25;;;;;;;6.30;2.95;;;6.60;60.20;;;;;;6294721;28;20036;-80
2021/01/03 09:21:00;;;;;;;6.85;2.40;;;6.60;60.10;;;;;;6186875;28;20397;-80
2021/01/03 09:24:04;;;;;;;6.90;2.75;;;6.60;60.20;;;;;;6190136;28;20026;-81
2021/01/03 09:27:08;;;;;;;4.20;2.72;;;6.60;60.20;;;;;;6183816;28;20061;-80
2021/01/03 09:30:33;;;;;;;3.08;2.15;;;6.60;60.20;;;;;;6185029;28;20458;-82
2021/01/03 09:33:35;;;;;;;4.60;2.15;;;6.70;60.10;;;;;;6202704;28;20026;-80
2021/01/03 09:37:09;;;;;;;5.50;2.35;;;6.70;59.90;;;;;;6219883;28;20426;-80
2021/01/03 09:40:37;;;;;;;4.57;2.13;;;6.70;59.80;;;;;;6183690;28;20044;-81
2021/01/03 09:44:11;;;;;;;4.53;2.13;;;6.70;59.90;;;;;;6195018;28;20085;-82
2021/01/03 09:47:14;;;;;;;7.80;2.22;;;6.80;59.90;;;;;;6205708;28;20114;-80
2021/01/03 09:50:30;;;;;;;5.95;2.40;;;6.70;59.70;;;;;;6203918;28;20034;-80
2021/01/03 09:53:36;;;;;;;4.88;2.92;;;6.80;59.80;;;;;;6202175;28;20058;-80
2021/01/03 09:56:39;;;;;;;4.95;2.50;;;6.80;60.40;;;;;;6253848;28;20090;-82
2021/01/03 09:59:40;;;;;;;4.05;2.47;;;6.80;59.60;;;;;;6285697;28;20025;-82
2021/01/03 10:02:41;;;;;;;4.85;2.30;;;6.80;59.50;;;;;;6281231;28;20028;-82
2021/01/03 10:05:43;;;;;;;3.10;2.03;;;6.90;59.50;;;;;;6266531;28;20028;-81
2021/01/03 10:08:45;;;;;;;4.68;2.20;;;6.80;59.40;;;;;;6266654;28;20037;-82
2021/01/03 10:11:46;;;;;;;4.13;2.47;;;6.90;59.60;;;;;;6271428;28;22286;-81
2021/01/03 10:15:02;;;;;;;5.20;2.15;;;6.90;59.60;;;;;;6287360;28;20063;-80
2021/01/03 10:18:09;;;;;;;5.13;2.83;;;6.90;59.60;;;;;;6277628;28;20036;-80
2021/01/03 10:21:20;;;;;;;4.85;3.05;;;6.90;59.60;;;;;;6292948;28;20040;-81
2021/01/03 10:24:26;;;;;;;4.60;2.53;;;6.80;59.60;;;;;;6293932;28;20060;-81
2021/01/03 10:27:27;;;;;;;4.60;2.50;;;6.90;59.60;;;;;;6325759;28;20357;-81
2021/01/03 10:30:28;;;;;;;7.25;2.60;;;6.90;59.60;;;;;;6307683;28;20389;-83
2021/01/03 10:33:29;;;;;;;8.02;2.25;;;6.90;59.70;;;;;;6292178;28;20042;-81
2021/01/03 10:36:30;;;;;;;4.90;2.75;;;6.90;59.70;;;;;;6325917;28;20340;-81
2021/01/03 10:39:31;;;;;;;5.75;2.67;;;6.90;59.80;;;;;;6290534;28;20024;-81
2021/01/03 10:42:32;;;;;;;4.72;2.65;;;7.00;59.90;;;;;;6300786;28;20039;-81
2021/01/03 10:45:33;;;;;;;5.82;2.95;;;7.00;59.80;;;;;;6289704;28;20032;-80
2021/01/03 10:48:34;;;;;;;3.90;2.38;;;7.10;59.90;;;;;;6325005;28;20028;-82
2021/01/03 10:51:38;;;;;;;3.75;2.58;;;7.00;59.70;;;;;;6308105;28;20119;-82
2021/01/03 10:54:39;;;;;;;5.22;2.83;;;7.20;59.80;;;;;;6307994;28;20074;-81
2021/01/03 10:57:41;;;;;;;5.25;2.70;;;7.30;59.90;;;;;;6322664;28;20082;-81
2021/01/03 11:00:42;;;;;;;8.35;3.03;;;7.40;59.80;;;;;;6285545;28;20036;-81
2021/01/03 11:03:43;;;;;;;5.55;2.85;;;7.50;59.70;;;;;;6266567;28;20352;-82
2021/01/03 11:06:46;;;;;;;7.07;3.05;;;7.50;59.60;;;;;;6246803;28;20043;-82
2021/01/03 11:09:49;;;;;;;5.88;2.58;;;7.60;59.50;;;;;;6268058;28;20032;-81
2021/01/03 11:12:50;;;;;;;5.95;2.92;;;7.60;59.40;;;;;;6297632;28;20140;-82
2021/01/03 11:15:51;;;;;;;4.97;2.28;;;7.60;59.40;;;;;;6277131;28;20028;-81
2021/01/03 11:18:52;;;;;;;5.63;2.70;;;7.60;59.30;;;;;;6272819;28;20043;-81
2021/01/03 11:22:02;;;;;;;4.65;2.30;;;7.60;59.30;;;;;;6268702;28;20036;-81
2021/01/03 11:25:04;;;;;;;6.38;2.83;;;7.60;59.30;;;;;;6300898;28;20036;-82
2021/01/03 11:28:05;;;;;;;8.73;3.38;;;7.60;59.20;;;;;;6288646;28;20094;-81
2021/01/03 11:31:06;;;;;;;6.53;3.15;;;7.60;59.40;;;;;;6298010;28;20103;-81
2021/01/03 11:34:10;;;;;;;6.18;2.67;;;7.70;59.60;;;;;;6320499;28;20080;-81
2021/01/03 11:37:15;;;;;;;6.82;2.85;;;7.70;59.60;;;;;;6313035;28;20036;-82
2021/01/03 11:40:16;;;;;;;7.38;3.22;;;7.80;59.50;;;;;;6297659;28;20063;-80
2021/01/03 11:43:18;;;;;;;8.68;3.95;;;7.90;59.50;;;;;;6299304;28;20062;-82
2021/01/03 11:46:20;;;;;;;6.53;3.15;;;7.90;59.40;;;;;;6298445;28;20025;-81
2021/01/03 11:49:21;;;;;;;6.05;3.17;;;8.00;59.40;;;;;;6281997;28;20443;-81
2021/01/03 11:52:25;;;;;;;5.18;2.70;;;8.00;59.40;;;;;;6304424;28;20041;-81
2021/01/03 11:55:26;;;;;;;8.50;3.28;;;8.00;59.30;;;;;;6289141;28;20046;-82
2021/01/03 11:58:28;;;;;;;6.25;3.58;;;8.00;59.20;;;;;;6295151;28;20161;-81
2021/01/03 12:01:28;;;;;;;5.55;3.25;;;7.90;58.90;;;;;;6309183;28;20448;-81
2021/01/03 12:04:29;;;;;;;7.13;3.13;;;7.80;58.90;;;;;;6314607;28;20498;-81
2021/01/03 12:07:30;;;;;;;6.03;3.33;;;7.70;59.00;;;;;;6319858;28;20056;-82
2021/01/03 12:10:31;;;;;;;7.05;3.60;;;7.70;59.10;;;;;;6297469;28;20132;-80
2021/01/03 12:13:32;;;;;;;5.63;3.42;;;7.70;59.20;;;;;;6346766;28;20039;-80
2021/01/03 12:16:33;;;;;;;8.68;4.10;;;7.60;59.30;;;;;;6292146;28;20058;-81
2021/01/03 12:19:34;;;;;;;7.13;3.60;;;7.70;59.30;;;;;;6325073;28;20081;-79
2021/01/03 12:22:35;;;;;;;6.53;3.30;;;7.70;59.50;;;;;;6320860;28;20089;-83
2021/01/03 12:25:36;;;;;;;8.80;4.70;;;7.70;59.50;;;;;;6294507;28;20040;-81
2021/01/03 12:28:37;;;;;;;6.85;3.95;;;7.70;59.70;;;;;;6334389;28;20563;-81
2021/01/03 12:31:46;;;;;;;6.65;4.10;;;7.80;59.80;;;;;;6313666;28;20084;-81
2021/01/03 12:34:48;;;;;;;5.20;3.05;;;7.80;59.70;;;;;;6298360;28;20040;-81
2021/01/03 12:37:49;;;;;;;4.30;2.03;;;7.90;59.60;;;;;;6314037;28;20067;-80
2021/01/03 12:40:49;;;;;;;6.50;3.00;;;7.80;59.40;;;;;;6329575;28;20060;-81
2021/01/03 12:43:51;;;;;;;4.10;2.70;;;7.80;59.30;;;;;;6312759;28;20110;-81
2021/01/03 12:46:52;;;;;;;6.18;2.97;;;7.90;59.30;;;;;;6315497;28;20095;-81
2021/01/03 12:50:22;;;;;;;5.85;2.40;;;7.90;59.20;;;;;;6228381;28;20120;-81
2021/01/03 12:54:59;;;;;;;5.50;3.28;;;7.80;59.10;;;;;;6086242;28;20072;-80
2021/01/03 12:59:13;;;;;;;7.68;2.85;;;7.90;59.20;;;;;;6102103;28;20031;-81
2021/01/03 13:02:34;;;;;;;5.65;3.13;;;7.80;59.20;;;;;;6112796;28;20096;-81
2021/01/03 13:05:35;;;;;;;9.73;3.42;;;7.70;59.30;;;;;;6135488;29;20491;-80
2021/01/03 13:08:41;;;;;;;6.40;3.25;;;7.70;59.60;;;;;;6126279;29;20526;-82
2021/01/03 13:11:52;;;;;;;4.80;2.85;;;7.60;59.70;;;;;;6071343;29;20058;-82
2021/01/03 13:14:53;;;;;;;8.18;3.80;;;7.50;59.80;;;;;;6087066;29;20407;-80
2021/01/03 13:17:55;;;;;;;5.90;3.08;;;7.40;59.90;;;;;;6071881;29;20051;-80
2021/01/03 13:20:56;;;;;;;5.70;2.72;;;7.40;60.10;;;;;;6086810;29;20468;-83
2021/01/03 13:24:13;;;;;;;5.03;2.42;;;7.50;60.20;;;;;;6107354;29;20044;-81
2021/01/03 13:27:14;;;;;;;5.80;3.00;;;7.50;60.00;;;;;;6126179;29;20036;-82
2021/01/03 13:30:18;;;;;;;5.13;2.80;;;7.50;60.00;;;;;;6170263;28;20371;-81
2021/01/03 13:33:20;;;;;;;4.85;2.90;;;7.50;60.80;;;;;;6141667;28;20460;-81
2021/01/03 13:36:25;;;;;;;8.20;3.67;;;7.40;59.90;;;;;;6181222;28;20045;-82
2021/01/03 13:39:26;;;;;;;7.72;3.88;;;7.50;60.00;;;;;;6285581;28;20130;-80
2021/01/03 13:42:27;;;;;;;8.25;4.13;;;7.50;60.10;;;;;;6320900;28;20040;-81
2021/01/03 13:45:28;;;;;;;9.73;4.32;;;7.50;60.40;;;;;;6322091;28;20028;-80
2021/01/03 13:48:29;;;;;;;5.80;3.47;;;7.50;60.40;;;;;;6321225;28;20032;-81
2021/01/03 13:51:30;;;;;;;10.10;4.07;;;7.50;60.30;;;;;;6303035;28;20328;-81
2021/01/03 13:54:31;;;;;;;6.18;3.15;;;7.40;60.20;;;;;;6321229;28;20036;-82
2021/01/03 13:57:32;;;;;;;6.43;3.65;;;7.50;60.40;;;;;;6304225;28;20037;-81
2021/01/03 14:00:36;;;;;;;7.28;3.33;;;7.50;60.30;;;;;;6309382;28;20124;-81
2021/01/03 14:04:10;;;;;;;5.35;3.15;;;7.50;60.20;;;;;;6296268;28;20036;-81
2021/01/03 14:07:22;;;;;;;5.88;3.13;;;7.50;60.00;;;;;;6294193;28;20070;-82
2021/01/03 14:10:24;;;;;;;15.15;4.05;;;7.50;60.00;;;;;;6327019;28;20170;-81
2021/01/03 14:13:25;;;;;;;4.95;2.80;;;7.50;60.10;;;;;;6309807;28;20459;-81
2021/01/03 14:16:29;;;;;;;8.05;3.97;;;7.50;60.40;;;;;;6328386;28;20092;-82
2021/01/03 14:19:32;;;;;;;12.00;5.30;;;7.50;60.40;;;;;;6326847;28;20028;-83
2021/01/03 14:22:33;;;;;;;6.40;3.25;;;7.50;60.60;;;;;;6306843;28;20029;-82
2021/01/03 14:25:34;;;;;;;7.38;3.78;;;7.50;60.60;;;;;;6289028;28;20051;-82
2021/01/03 14:28:35;;;;;;;7.85;4.10;;;7.60;60.60;;;;;;6315281;28;20083;-83
2021/01/03 14:31:37;;;;;;;10.20;4.13;;;7.50;60.60;;;;;;6267288;28;20344;-82
2021/01/03 14:34:48;;;;;;;7.55;3.65;;;7.50;60.60;;;;;;6282336;28;20328;-82
2021/01/03 14:38:11;;;;;;;8.25;4.25;;;7.50;60.60;;;;;;6282149;28;20032;-82
2021/01/03 14:41:13;;;;;;;9.75;4.07;;;7.50;60.60;;;;;;6284550;28;20450;-83
2021/01/03 14:44:24;;;;;;;10.32;3.55;;;7.50;61.30;;;;;;6283833;28;20462;-81
2021/01/03 14:47:50;;;;;;;8.15;4.35;;;7.50;60.40;;;;;;6291935;28;20549;-83
2021/01/03 14:51:13;;;;;;;5.07;3.28;;;7.40;60.30;;;;;;6191841;28;20046;-83
2021/01/03 14:54:44;;;;;;;7.07;3.85;;;7.50;60.20;;;;;;6222342;28;20052;-82
2021/01/03 14:57:47;;;;;;;8.85;3.70;;;7.40;60.10;;;;;;6223609;28;20034;-80
2021/01/03 15:00:52;;;;;;;9.05;3.83;;;7.40;60.10;;;;;;6198527;28;20116;-81
2021/01/03 15:04:27;;;;;;;7.43;3.72;;;7.50;61.10;;;;;;6208262;28;20057;-81
2021/01/03 15:07:40;;;;;;;9.25;3.65;;;7.50;60.20;;;;;;6224965;28;20461;-82
2021/01/03 15:10:41;;;;;;;8.40;3.45;;;7.50;60.10;;;;;;6210365;28;20046;-82
2021/01/03 15:13:43;;;;;;;7.78;3.65;;;7.40;60.10;;;;;;6242244;28;20069;-82
2021/01/03 15:16:44;;;;;;;6.80;3.38;;;7.40;60.00;;;;;;6241909;28;20034;-82
2021/01/03 15:20:21;;;;;;;9.93;3.78;;;7.40;60.00;;;;;;6222427;28;20062;-81
2021/01/03 15:23:32;;;;;;;5.38;3.30;;;7.40;60.10;;;;;;6214047;28;20081;-80
2021/01/03 15:26:53;;;;;;;7.97;3.67;;;7.30;60.20;;;;;;6215155;28;20037;-81
2021/01/03 15:29:59;;;;;;;9.13;4.43;;;7.30;60.20;;;;;;6314870;28;20033;-83
2021/01/03 15:33:07;;;;;;;8.18;3.55;;;7.30;60.10;;;;;;6308302;28;20052;-80
2021/01/03 15:36:28;;;;;;;11.52;4.07;;;7.40;60.20;;;;;;6289758;28;20032;-82
2021/01/03 15:39:31;;;;;;;6.53;3.47;;;7.40;60.20;;;;;;6271409;28;20539;-81
2021/01/03 15:42:34;;;;;;;5.30;2.88;;;7.40;60.10;;;;;;6264967;28;20345;-81
2021/01/03 15:46:01;;;;;;;7.70;3.67;;;7.40;60.00;;;;;;6298366;28;20455;-82
2021/01/03 15:49:09;;;;;;;8.45;3.65;;;7.40;60.00;;;;;;6299326;28;20044;-80
2021/01/03 15:52:13;;;;;;;6.70;3.42;;;7.40;59.90;;;;;;6295984;28;20371;-81
2021/01/03 15:55:22;;;;;;;7.07;3.40;;;7.40;59.80;;;;;;6276832;28;20056;-80
2021/01/03 15:58:23;;;;;;;7.63;3.53;;;7.40;59.80;;;;;;6300232;28;20067;-81
2021/01/03 16:01:32;;;;;;;7.78;3.45;;;7.30;59.70;;;;;;6281321;28;20047;-80
2021/01/03 16:04:33;;;;;;;7.07;3.58;;;7.30;59.80;;;;;;6278156;28;20047;-81
2021/01/03 16:07:35;;;;;;;7.75;3.60;;;7.30;59.80;;;;;;6290330;28;20029;-81
2021/01/03 16:10:36;;;;;;;5.88;3.30;;;7.30;59.90;;;;;;6296972;28;20406;-81
2021/01/03 16:13:37;;;;;;;12.68;4.85;;;7.30;59.90;;;;;;6296884;28;20066;-81
2021/01/03 16:16:41;;;;;;;9.38;3.83;;;7.30;59.90;;;;;;6297408;28;20036;-81
2021/01/03 16:19:47;;;;;;;8.63;4.28;;;7.40;59.80;;;;;;6296869;28;20029;-82
2021/01/03 16:23:09;;;;;;;7.43;3.78;;;7.40;59.80;;;;;;6315049;28;20036;-80
2021/01/03 16:26:28;;;;;;;9.23;4.20;;;7.30;59.80;;;;;;6309497;28;20044;-82
2021/01/03 16:29:44;;;;;;;7.85;4.07;;;7.30;59.70;;;;;;6265799;28;20086;-80